Time;durP1;ratioP1;P1;durP2;ratioP2;P2;SDS_P1;SDS_P2;PMS_P1;PMS_P2;Temp;Humidity;BMP_temperature;BMP_pressure;BME280_temperature;BME280_humidity;BME280_pressure;Samples;Min_cycle;Max_cycle;Signal;HPM_P1;HPM_P2
2023/11/24 00:00:41;;;;;;;8.10;1.50;;;7.10;99.90;;;;;;2094526;28;20017;-80
2023/11/24 00:01:41;;;;;;;6.65;1.40;;;7.10;99.90;;;;;;2091939;28;20100;-82
2023/11/24 00:02:42;;;;;;;6.63;1.50;;;7.10;99.90;;;;;;2091023;28;20043;-80
2023/11/24 00:03:43;;;;;;;7.07;1.55;;;7.10;99.90;;;;;;2090855;28;20051;-78
2023/11/24 00:04:44;;;;;;;6.40;1.67;;;7.00;99.90;;;;;;2082749;28;20025;-83
2023/11/24 00:05:46;;;;;;;7.78;1.40;;;7.00;99.90;;;;;;2079319;28;20033;-79
2023/11/24 00:06:46;;;;;;;5.13;1.40;;;7.00;99.90;;;;;;2085408;28;20490;-81
2023/11/24 00:07:47;;;;;;;7.20;1.58;;;7.00;99.90;;;;;;2093705;28;20056;-82
2023/11/24 00:08:48;;;;;;;8.23;1.63;;;7.00;99.90;;;;;;2093656;28;20078;-80
2023/11/24 00:09:49;;;;;;;7.20;1.90;;;7.00;99.90;;;;;;2095013;28;20541;-81
2023/11/24 00:10:50;;;;;;;6.03;1.60;;;7.00;99.90;;;;;;2088751;28;20037;-79
2023/11/24 00:11:52;;;;;;;8.45;1.45;;;7.00;99.90;;;;;;2072675;28;20443;-82
2023/11/24 00:12:52;;;;;;;7.25;1.73;;;7.00;99.90;;;;;;2075859;28;20064;-83
2023/11/24 00:13:53;;;;;;;6.75;1.63;;;7.00;99.90;;;;;;2084663;28;20044;-82
2023/11/24 00:14:54;;;;;;;5.55;1.40;;;7.00;99.90;;;;;;2097030;28;20421;-80
2023/11/24 00:15:55;;;;;;;7.53;1.70;;;7.00;99.90;;;;;;2092683;28;20029;-79
2023/11/24 00:16:57;;;;;;;7.63;1.50;;;7.00;99.90;;;;;;2092721;28;20041;-79
2023/11/24 00:17:58;;;;;;;6.88;1.40;;;7.00;99.90;;;;;;2081014;28;20428;-82
2023/11/24 00:18:58;;;;;;;3.90;1.42;;;7.00;99.90;;;;;;2083930;28;20040;-81
2023/11/24 00:19:59;;;;;;;6.03;1.52;;;7.00;99.90;;;;;;2092789;28;20486;-80
2023/11/24 00:21:06;;;;;;;6.60;1.63;;;7.00;99.90;;;;;;2088787;28;20025;-81
2023/11/24 00:22:06;;;;;;;5.22;1.42;;;7.00;99.90;;;;;;2089388;28;20069;-78
2023/11/24 00:23:07;;;;;;;9.85;1.65;;;7.00;99.90;;;;;;2091099;28;20539;-84
2023/11/24 00:24:08;;;;;;;7.10;2.00;;;7.00;99.90;;;;;;2089244;28;20491;-78
2023/11/24 00:25:09;;;;;;;5.93;1.50;;;7.00;99.90;;;;;;2098172;28;20032;-81
2023/11/24 00:26:09;;;;;;;7.45;1.33;;;7.00;99.90;;;;;;2095449;28;20033;-81
2023/11/24 00:27:21;;;;;;;13.00;1.70;;;7.00;99.90;;;;;;2095690;28;20123;-80
2023/11/24 00:28:23;;;;;;;7.75;1.88;;;7.00;99.90;;;;;;2085260;28;20104;-80
2023/11/24 00:29:23;;;;;;;6.35;1.40;;;7.00;99.90;;;;;;2077059;28;20037;-80
2023/11/24 00:30:24;;;;;;;7.57;1.38;;;7.00;99.90;;;;;;2085731;28;20021;-79
2023/11/24 00:31:26;;;;;;;7.82;1.67;;;7.00;99.90;;;;;;2091815;28;20528;-80
2023/11/24 00:32:26;;;;;;;8.43;1.60;;;7.00;99.90;;;;;;2078431;28;20424;-83
2023/11/24 00:33:28;;;;;;;8.63;1.90;;;6.90;99.90;;;;;;2095896;28;20036;-79
2023/11/24 00:34:30;;;;;;;8.02;2.00;;;7.00;99.90;;;;;;2102688;28;20036;-82
2023/11/24 00:35:31;;;;;;;11.70;1.88;;;7.00;99.90;;;;;;2103672;28;20008;-79
2023/11/24 00:36:32;;;;;;;5.90;1.58;;;7.00;99.90;;;;;;2103640;28;20080;-84
2023/11/24 00:37:33;;;;;;;8.00;1.75;;;7.00;99.90;;;;;;2093036;28;20040;-82
2023/11/24 00:38:35;;;;;;;10.82;2.28;;;7.00;99.90;;;;;;2091753;28;20487;-80
2023/11/24 00:39:39;;;;;;;7.18;1.80;;;7.00;99.90;;;;;;2090211;28;20032;-80
2023/11/24 00:40:40;;;;;;;9.88;2.10;;;6.90;99.90;;;;;;2093383;28;20036;-82
2023/11/24 00:41:41;;;;;;;9.10;1.80;;;7.00;99.90;;;;;;2090010;28;20025;-82
2023/11/24 00:42:42;;;;;;;12.77;1.85;;;6.90;99.90;;;;;;2091548;28;20020;-80
2023/11/24 00:43:43;;;;;;;9.00;1.70;;;6.90;99.90;;;;;;2094272;28;20035;-84
2023/11/24 00:44:44;;;;;;;11.10;2.03;;;6.90;99.90;;;;;;2076492;28;20032;-80
2023/11/24 00:45:45;;;;;;;10.85;1.92;;;6.90;99.90;;;;;;2069310;28;20030;-80
2023/11/24 00:46:45;;;;;;;8.25;1.50;;;6.90;99.90;;;;;;2083816;28;20119;-80
2023/11/24 00:47:46;;;;;;;12.23;2.00;;;6.90;99.90;;;;;;2092218;28;20433;-80
2023/11/24 00:48:47;;;;;;;9.50;1.70;;;6.90;99.90;;;;;;2095552;28;20025;-81
2023/11/24 00:49:48;;;;;;;10.20;1.88;;;6.90;99.90;;;;;;2094371;28;20051;-81
2023/11/24 00:50:50;;;;;;;8.57;2.00;;;6.90;99.90;;;;;;2085764;28;20057;-79
2023/11/24 00:51:51;;;;;;;10.45;1.92;;;6.90;99.90;;;;;;2082174;28;20025;-82
2023/11/24 00:52:51;;;;;;;8.90;2.00;;;6.90;99.90;;;;;;2081798;28;20028;-80
2023/11/24 00:53:53;;;;;;;9.18;2.05;;;6.90;99.90;;;;;;2076831;28;20060;-79
2023/11/24 00:54:54;;;;;;;10.38;1.95;;;6.90;99.90;;;;;;2084296;28;20632;-79
2023/11/24 00:55:56;;;;;;;8.27;1.75;;;6.80;99.90;;;;;;2084524;28;20123;-79
2023/11/24 00:56:57;;;;;;;8.32;1.63;;;6.80;99.90;;;;;;2088309;28;20110;-79
2023/11/24 00:57:58;;;;;;;7.40;1.73;;;6.80;99.90;;;;;;2076208;28;20839;-79
2023/11/24 00:58:59;;;;;;;9.07;1.75;;;6.80;99.90;;;;;;2075817;28;20052;-80
2023/11/24 01:00:02;;;;;;;9.52;1.77;;;6.80;99.90;;;;;;2090130;28;20084;-80
2023/11/24 01:01:04;;;;;;;7.78;1.55;;;6.80;99.90;;;;;;2087806;28;20042;-79
2023/11/24 01:02:05;;;;;;;8.15;1.88;;;6.80;99.90;;;;;;2084672;28;20046;-79
2023/11/24 01:03:08;;;;;;;6.68;1.67;;;6.80;99.90;;;;;;2077713;28;20152;-79
2023/11/24 01:04:08;;;;;;;7.82;1.73;;;6.70;99.90;;;;;;2079975;28;20108;-79
2023/11/24 01:05:09;;;;;;;8.80;1.80;;;6.70;99.90;;;;;;2076939;28;20044;-79
2023/11/24 01:06:09;;;;;;;7.25;1.85;;;6.70;99.90;;;;;;2081473;28;20064;-80
2023/11/24 01:07:10;;;;;;;10.05;2.25;;;6.70;99.90;;;;;;2088947;28;20545;-81
2023/11/24 01:08:11;;;;;;;8.55;1.88;;;6.70;99.90;;;;;;2098693;28;20085;-78
2023/11/24 01:09:12;;;;;;;9.10;2.10;;;6.70;99.90;;;;;;2090138;28;20017;-80
2023/11/24 01:10:13;;;;;;;11.60;2.33;;;6.70;99.90;;;;;;2087171;28;20124;-80
2023/11/24 01:11:13;;;;;;;9.85;2.20;;;6.70;99.90;;;;;;2074286;28;20030;-81
2023/11/24 01:12:14;;;;;;;9.18;1.83;;;6.70;99.90;;;;;;2082984;28;20025;-79
2023/11/24 01:13:14;;;;;;;11.20;2.20;;;6.70;99.90;;;;;;2088345;28;20041;-80
2023/11/24 01:14:15;;;;;;;12.18;2.30;;;6.70;99.90;;;;;;2086494;28;20514;-80
2023/11/24 01:15:16;;;;;;;12.20;2.25;;;6.70;99.90;;;;;;2087533;28;20032;-81
2023/11/24 01:16:17;;;;;;;11.88;2.10;;;6.70;99.90;;;;;;2090884;28;20016;-81
2023/11/24 01:17:20;;;;;;;12.43;2.40;;;6.70;99.90;;;;;;2090027;28;20032;-82
2023/11/24 01:18:21;;;;;;;11.93;2.17;;;6.70;99.90;;;;;;2099036;28;20031;-80
2023/11/24 01:19:21;;;;;;;9.02;2.00;;;6.60;99.90;;;;;;2096755;28;20017;-78
2023/11/24 01:20:22;;;;;;;10.82;1.80;;;6.70;99.90;;;;;;2091807;28;20027;-79
2023/11/24 01:21:23;;;;;;;9.95;2.35;;;6.60;99.90;;;;;;2094766;28;20028;-79
2023/11/24 01:22:24;;;;;;;6.68;1.63;;;6.60;99.90;;;;;;2094423;28;20525;-79
2023/11/24 01:23:27;;;;;;;9.65;1.83;;;6.60;99.90;;;;;;2094012;28;20029;-82
2023/11/24 01:24:27;;;;;;;11.95;2.33;;;6.60;99.90;;;;;;2088091;28;20474;-80
2023/11/24 01:25:28;;;;;;;10.75;2.20;;;6.60;99.90;;;;;;2084705;28;20029;-79
2023/11/24 01:26:29;;;;;;;10.73;2.15;;;6.50;99.90;;;;;;2095410;28;20295;-80
2023/11/24 01:27:30;;;;;;;13.57;2.33;;;6.50;99.90;;;;;;2088656;28;20081;-80
2023/11/24 01:28:31;;;;;;;10.73;2.20;;;6.50;99.90;;;;;;2092364;28;20024;-79
2023/11/24 01:29:32;;;;;;;11.02;1.95;;;6.50;99.90;;;;;;2096383;28;20108;-80
2023/11/24 01:30:34;;;;;;;10.07;1.90;;;6.50;99.90;;;;;;2095399;28;20447;-81
2023/11/24 01:31:35;;;;;;;12.43;2.22;;;6.50;99.90;;;;;;2091687;28;20025;-82
2023/11/24 01:32:36;;;;;;;8.13;1.83;;;6.50;99.90;;;;;;2086102;28;20059;-78
2023/11/24 01:33:37;;;;;;;11.52;2.00;;;6.50;99.90;;;;;;2088006;28;20028;-80
2023/11/24 01:34:38;;;;;;;7.18;2.10;;;6.50;99.90;;;;;;2067042;28;20048;-77
2023/11/24 01:35:38;;;;;;;9.98;1.90;;;6.50;99.90;;;;;;2071645;28;20024;-80
2023/11/24 01:36:39;;;;;;;7.70;1.70;;;6.50;99.90;;;;;;2073436;28;20104;-81
2023/11/24 01:37:40;;;;;;;8.75;1.83;;;6.50;99.90;;;;;;2082878;28;20025;-81
2023/11/24 01:38:40;;;;;;;10.40;1.85;;;6.50;99.90;;;;;;2092026;28;20274;-80
2023/11/24 01:39:42;;;;;;;6.68;1.75;;;6.50;99.90;;;;;;2096297;28;20024;-81
2023/11/24 01:40:42;;;;;;;8.88;1.63;;;6.40;99.90;;;;;;2092362;28;20050;-80
2023/11/24 01:41:43;;;;;;;6.80;1.50;;;6.40;99.90;;;;;;2096571;28;20028;-80
2023/11/24 01:42:44;;;;;;;5.93;1.55;;;6.30;99.90;;;;;;2092039;28;20024;-79
2023/11/24 01:44:01;;;;;;;4.68;1.45;;;6.30;99.90;;;;;;2088670;28;20039;-81
2023/11/24 01:45:04;;;;;;;9.40;1.70;;;6.30;99.90;;;;;;2086576;28;20282;-79
2023/11/24 01:46:05;;;;;;;10.55;1.40;;;6.30;99.90;;;;;;2092235;28;20016;-79
2023/11/24 01:47:07;;;;;;;6.55;1.60;;;6.30;99.90;;;;;;2083360;28;20014;-79
2023/11/24 01:48:08;;;;;;;5.18;1.50;;;6.30;99.90;;;;;;2083937;28;20125;-80
2023/11/24 01:49:10;;;;;;;6.20;1.50;;;6.30;99.90;;;;;;2095416;28;20031;-80
2023/11/24 01:50:10;;;;;;;9.77;1.42;;;6.20;99.90;;;;;;2094863;28;20036;-81
2023/11/24 01:51:11;;;;;;;7.80;1.40;;;6.20;99.90;;;;;;2084097;28;20107;-78
2023/11/24 01:52:13;;;;;;;5.82;1.70;;;6.30;99.90;;;;;;2080170;28;20562;-79
2023/11/24 01:53:14;;;;;;;7.22;1.38;;;6.30;99.90;;;;;;2072192;28;20826;-76
2023/11/24 01:54:18;;;;;;;4.72;1.20;;;6.30;99.90;;;;;;2082501;28;20116;-75
2023/11/24 01:55:23;;;;;;;5.82;1.30;;;6.20;99.90;;;;;;2080968;28;20032;-81
2023/11/24 01:56:24;;;;;;;4.28;1.30;;;6.30;99.90;;;;;;2096231;28;20034;-76
2023/11/24 01:57:24;;;;;;;7.80;1.30;;;6.20;99.90;;;;;;2087393;28;20047;-75
2023/11/24 01:58:29;;;;;;;4.20;1.40;;;6.20;99.90;;;;;;2076948;28;20488;-75
2023/11/24 01:59:30;;;;;;;7.45;1.30;;;6.20;99.90;;;;;;2078242;28;20029;-74
2023/11/24 02:00:33;;;;;;;6.63;1.30;;;6.20;99.90;;;;;;2088486;28;20477;-75
2023/11/24 02:01:34;;;;;;;7.38;1.23;;;6.20;99.90;;;;;;2095307;28;20502;-75
2023/11/24 02:02:35;;;;;;;5.63;1.30;;;6.20;99.90;;;;;;2093043;28;20031;-75
2023/11/24 02:03:35;;;;;;;5.00;1.30;;;6.20;99.90;;;;;;2087943;28;20231;-75
2023/11/24 02:04:36;;;;;;;7.72;1.40;;;6.10;99.90;;;;;;2087780;28;20095;-74
2023/11/24 02:05:38;;;;;;;3.03;1.08;;;6.20;99.90;;;;;;2088647;28;20069;-75
2023/11/24 02:06:39;;;;;;;3.85;1.25;;;6.20;99.90;;;;;;2091701;28;20437;-74
2023/11/24 02:07:41;;;;;;;5.93;1.30;;;6.20;99.90;;;;;;2091342;28;20025;-73
2023/11/24 02:08:42;;;;;;;6.68;1.20;;;6.20;99.90;;;;;;2078742;28;20026;-74
2023/11/24 02:09:43;;;;;;;7.88;1.70;;;6.20;99.90;;;;;;2083105;28;20141;-73
2023/11/24 02:10:45;;;;;;;5.32;1.45;;;6.20;99.90;;;;;;2086346;28;20048;-73
2023/11/24 02:11:45;;;;;;;7.55;1.42;;;6.20;99.90;;;;;;2079058;28;20029;-74
2023/11/24 02:12:46;;;;;;;7.15;1.70;;;6.20;99.90;;;;;;2092106;28;20040;-74
2023/11/24 02:13:50;;;;;;;10.30;1.65;;;6.20;99.90;;;;;;2076746;28;20060;-74
2023/11/24 02:14:51;;;;;;;7.57;1.60;;;6.20;99.90;;;;;;2062637;28;20148;-74
2023/11/24 02:15:53;;;;;;;6.55;1.60;;;6.20;99.90;;;;;;2078567;28;20216;-75
2023/11/24 02:16:54;;;;;;;6.35;1.40;;;6.20;99.90;;;;;;2070219;28;20018;-75
2023/11/24 02:17:55;;;;;;;8.45;1.75;;;6.20;99.90;;;;;;2074615;28;20030;-74
2023/11/24 02:18:56;;;;;;;6.82;1.48;;;6.20;99.90;;;;;;2066251;28;20045;-74
2023/11/24 02:19:57;;;;;;;7.32;1.77;;;6.30;99.90;;;;;;2068155;28;20030;-74
2023/11/24 02:21:00;;;;;;;7.60;1.77;;;6.30;99.90;;;;;;2076136;28;20026;-75
2023/11/24 02:22:01;;;;;;;8.30;1.83;;;6.30;99.90;;;;;;2086813;28;20056;-75
2023/11/24 02:23:01;;;;;;;6.60;1.55;;;6.30;99.90;;;;;;2080977;28;20241;-74
2023/11/24 02:24:05;;;;;;;7.80;1.70;;;6.30;99.90;;;;;;2082750;28;20627;-75
2023/11/24 02:25:06;;;;;;;8.13;2.03;;;6.30;99.90;;;;;;2087180;28;20031;-75
2023/11/24 02:26:09;;;;;;;9.05;1.95;;;6.30;99.90;;;;;;2088679;28;20032;-75
2023/11/24 02:27:10;;;;;;;12.05;2.20;;;6.30;99.90;;;;;;2074847;28;20025;-75
2023/11/24 02:28:11;;;;;;;9.88;1.70;;;6.30;99.90;;;;;;2058427;28;20034;-75
2023/11/24 02:29:13;;;;;;;9.27;1.90;;;6.30;99.90;;;;;;2070226;28;20041;-75
2023/11/24 02:30:13;;;;;;;10.48;1.90;;;6.30;99.90;;;;;;2082383;28;20024;-76
2023/11/24 02:31:16;;;;;;;9.82;1.90;;;6.30;99.90;;;;;;2070235;28;20033;-76
2023/11/24 02:32:20;;;;;;;7.47;1.95;;;6.30;99.90;;;;;;2065066;28;20076;-75
2023/11/24 02:33:22;;;;;;;10.73;1.90;;;6.30;99.90;;;;;;2066335;28;20124;-76
2023/11/24 02:34:23;;;;;;;10.07;2.15;;;6.30;99.90;;;;;;2066504;28;20109;-77
2023/11/24 02:35:26;;;;;;;13.20;2.63;;;6.30;99.90;;;;;;2071554;28;20327;-74
2023/11/24 02:36:30;;;;;;;9.77;2.22;;;6.30;99.90;;;;;;2082630;28;20183;-75
2023/11/24 02:37:31;;;;;;;10.57;2.45;;;6.30;99.90;;;;;;2089501;28;20487;-74
2023/11/24 02:38:32;;;;;;;10.27;2.13;;;6.30;99.90;;;;;;2086303;28;20036;-75
2023/11/24 02:39:33;;;;;;;9.98;1.92;;;6.30;99.90;;;;;;2086332;28;20234;-74
2023/11/24 02:40:33;;;;;;;8.05;2.10;;;6.30;99.90;;;;;;2083898;28;20029;-76
2023/11/24 02:41:34;;;;;;;10.25;1.88;;;6.40;99.90;;;;;;2082681;28;20228;-76
2023/11/24 02:42:37;;;;;;;8.43;2.08;;;6.40;99.90;;;;;;2093563;28;20060;-75
2023/11/24 02:43:38;;;;;;;11.63;2.30;;;6.30;99.90;;;;;;2086859;28;20024;-74
2023/11/24 02:44:39;;;;;;;11.02;2.25;;;6.30;99.90;;;;;;2094785;28;20434;-76
2023/11/24 02:45:40;;;;;;;12.07;2.22;;;6.40;99.90;;;;;;2091468;28;20078;-74
2023/11/24 02:46:40;;;;;;;7.95;2.10;;;6.40;99.90;;;;;;2088061;28;20028;-76
2023/11/24 02:47:41;;;;;;;11.30;2.40;;;6.40;99.90;;;;;;2082756;28;20060;-76
2023/11/24 02:48:43;;;;;;;9.38;2.10;;;6.30;99.90;;;;;;2083124;28;20429;-76
2023/11/24 02:49:44;;;;;;;12.68;2.25;;;6.40;99.90;;;;;;2078821;28;20041;-76
2023/11/24 02:50:44;;;;;;;12.70;2.03;;;6.40;99.90;;;;;;2089751;28;20036;-76
2023/11/24 02:51:45;;;;;;;9.35;1.80;;;6.40;99.90;;;;;;2094877;28;20100;-76
2023/11/24 02:52:45;;;;;;;10.55;2.00;;;6.40;99.90;;;;;;2094632;28;20031;-76
2023/11/24 02:53:47;;;;;;;11.82;2.03;;;6.40;99.90;;;;;;2086843;28;20029;-76
2023/11/24 02:54:52;;;;;;;13.18;2.40;;;6.40;99.90;;;;;;2082167;28;20045;-77
2023/11/24 02:55:52;;;;;;;11.60;2.47;;;6.40;99.90;;;;;;2095582;28;20024;-76
2023/11/24 02:56:53;;;;;;;11.80;2.15;;;6.50;99.90;;;;;;2083759;28;20029;-77
2023/11/24 02:57:53;;;;;;;6.85;2.10;;;6.50;99.90;;;;;;2076910;28;20037;-77
2023/11/24 02:58:54;;;;;;;10.50;2.22;;;6.40;99.90;;;;;;2078190;28;20036;-76
2023/11/24 02:59:55;;;;;;;10.90;2.08;;;6.40;99.90;;;;;;2082425;28;20098;-76
2023/11/24 03:00:56;;;;;;;8.90;2.10;;;6.40;99.90;;;;;;2078513;28;20316;-75
2023/11/24 03:01:58;;;;;;;8.95;2.30;;;6.40;99.90;;;;;;2082267;28;20040;-74
2023/11/24 03:03:02;;;;;;;7.35;2.22;;;6.40;99.90;;;;;;2074584;28;20122;-78
2023/11/24 03:04:02;;;;;;;10.65;2.42;;;6.40;99.90;;;;;;2084398;28;20074;-74
2023/11/24 03:05:04;;;;;;;7.75;2.20;;;6.40;99.90;;;;;;2086238;28;20703;-76
2023/11/24 03:06:05;;;;;;;10.15;2.35;;;6.40;99.90;;;;;;2079655;28;20515;-77
2023/11/24 03:07:09;;;;;;;9.25;2.55;;;6.40;99.90;;;;;;2083351;28;20487;-77
2023/11/24 03:08:09;;;;;;;12.25;2.45;;;6.40;99.90;;;;;;2078677;28;20029;-76
2023/11/24 03:09:10;;;;;;;9.82;2.50;;;6.40;99.90;;;;;;2069684;28;20076;-76
2023/11/24 03:10:11;;;;;;;8.52;2.05;;;6.40;99.90;;;;;;2062841;28;20018;-77
2023/11/24 03:11:12;;;;;;;10.93;2.13;;;6.40;99.90;;;;;;2066054;28;20472;-76
2023/11/24 03:12:13;;;;;;;12.35;2.70;;;6.40;99.90;;;;;;2078375;28;20033;-75
2023/11/24 03:13:13;;;;;;;10.23;2.20;;;6.40;99.90;;;;;;2075079;28;20513;-77
2023/11/24 03:14:15;;;;;;;13.85;2.80;;;6.40;99.90;;;;;;2062237;28;20140;-76
2023/11/24 03:15:16;;;;;;;9.98;2.33;;;6.40;99.90;;;;;;2075916;28;20037;-77
2023/11/24 03:16:17;;;;;;;11.77;2.20;;;6.40;99.90;;;;;;2075141;28;20248;-78
2023/11/24 03:17:17;;;;;;;7.60;2.08;;;6.40;99.90;;;;;;2078648;28;20059;-77
2023/11/24 03:18:18;;;;;;;13.57;2.63;;;6.30;99.90;;;;;;2066760;28;20456;-77
2023/11/24 03:19:20;;;;;;;8.32;2.10;;;6.40;99.90;;;;;;2063085;28;20029;-79
2023/11/24 03:20:21;;;;;;;8.85;2.00;;;6.30;99.90;;;;;;2075917;28;20412;-78
2023/11/24 03:21:22;;;;;;;12.65;2.35;;;6.30;99.90;;;;;;2090313;28;20060;-79
2023/11/24 03:22:22;;;;;;;11.55;2.70;;;6.30;99.90;;;;;;2088979;28;20021;-77
2023/11/24 03:23:23;;;;;;;12.13;2.60;;;6.30;99.90;;;;;;2093330;28;20483;-78
2023/11/24 03:24:24;;;;;;;14.50;2.97;;;6.20;99.90;;;;;;2087998;28;20407;-79
2023/11/24 03:25:24;;;;;;;10.75;2.47;;;6.20;99.90;;;;;;2094863;28;20360;-78
2023/11/24 03:26:25;;;;;;;9.93;2.33;;;6.20;99.90;;;;;;2092155;28;20024;-78
2023/11/24 03:27:27;;;;;;;11.55;2.10;;;6.10;99.90;;;;;;2085784;28;20040;-77
2023/11/24 03:28:27;;;;;;;12.50;2.42;;;6.10;99.90;;;;;;2095699;28;20017;-78
2023/11/24 03:29:28;;;;;;;8.95;2.28;;;6.10;99.90;;;;;;2096961;28;20455;-77
2023/11/24 03:30:30;;;;;;;15.25;2.83;;;6.10;99.90;;;;;;2097624;28;20036;-77
2023/11/24 03:31:31;;;;;;;12.40;2.30;;;6.10;99.90;;;;;;2089714;28;20020;-80
2023/11/24 03:32:33;;;;;;;12.48;2.42;;;6.10;99.90;;;;;;2084324;28;20061;-80
2023/11/24 03:33:35;;;;;;;14.70;2.70;;;6.10;99.90;;;;;;2083767;28;20036;-79
2023/11/24 03:34:36;;;;;;;11.73;2.33;;;6.10;99.90;;;;;;2083722;28;20041;-79
2023/11/24 03:35:36;;;;;;;11.48;2.25;;;6.10;99.90;;;;;;2082299;28;20025;-79
2023/11/24 03:36:37;;;;;;;11.05;2.58;;;6.10;99.90;;;;;;2098020;28;20036;-78
2023/11/24 03:37:38;;;;;;;13.90;2.60;;;6.10;99.90;;;;;;2095278;28;20024;-78
2023/11/24 03:38:38;;;;;;;10.48;2.67;;;6.10;99.90;;;;;;2092194;28;20061;-77
2023/11/24 03:39:39;;;;;;;10.85;2.60;;;6.20;99.90;;;;;;2090227;28;20608;-77
2023/11/24 03:40:40;;;;;;;12.35;2.60;;;6.20;99.90;;;;;;2087230;28;20502;-78
2023/11/24 03:41:41;;;;;;;12.07;3.00;;;6.20;99.90;;;;;;2092107;28;20028;-78
2023/11/24 03:42:41;;;;;;;10.10;2.53;;;6.20;99.90;;;;;;2084131;28;20025;-80
2023/11/24 03:43:42;;;;;;;12.10;2.80;;;6.20;99.90;;;;;;2080858;28;20190;-77
2023/11/24 03:44:43;;;;;;;10.95;2.90;;;6.20;99.90;;;;;;2096418;28;20020;-79
2023/11/24 03:45:43;;;;;;;13.63;3.10;;;6.20;99.90;;;;;;2092656;28;20040;-79
2023/11/24 03:46:44;;;;;;;10.30;3.13;;;6.10;99.90;;;;;;2083552;28;20036;-79
2023/11/24 03:47:45;;;;;;;9.45;2.50;;;6.20;99.90;;;;;;2087803;28;20407;-77
2023/11/24 03:48:46;;;;;;;12.07;2.95;;;6.20;99.90;;;;;;2086974;28;20125;-78
2023/11/24 03:49:46;;;;;;;15.15;2.85;;;6.20;99.90;;;;;;2083404;28;20033;-78
2023/11/24 03:50:49;;;;;;;12.27;2.38;;;6.20;99.90;;;;;;2083417;28;20025;-79
2023/11/24 03:51:50;;;;;;;13.75;2.45;;;6.20;99.90;;;;;;2086080;28;20498;-78
2023/11/24 03:52:50;;;;;;;11.30;2.70;;;6.20;99.90;;;;;;2080615;28;20164;-77
2023/11/24 03:53:51;;;;;;;13.75;2.60;;;6.20;99.90;;;;;;2087096;28;20049;-80
2023/11/24 03:54:52;;;;;;;11.57;2.65;;;6.20;99.90;;;;;;2090972;28;20047;-80
2023/11/24 03:55:52;;;;;;;16.23;3.05;;;6.20;99.90;;;;;;2091542;28;20074;-80
2023/11/24 03:56:53;;;;;;;15.38;2.80;;;6.10;99.90;;;;;;2090579;28;20229;-80
2023/11/24 03:57:54;;;;;;;15.63;2.88;;;6.10;99.90;;;;;;2084518;28;20017;-78
2023/11/24 03:58:55;;;;;;;12.90;2.85;;;6.10;99.90;;;;;;2076320;28;20503;-80
2023/11/24 03:59:56;;;;;;;12.98;3.20;;;6.10;99.90;;;;;;2071362;28;20088;-78
2023/11/24 04:00:56;;;;;;;14.52;2.60;;;6.10;99.90;;;;;;2073938;28;20136;-79
2023/11/24 04:01:57;;;;;;;13.05;2.55;;;6.00;99.90;;;;;;2070632;28;20031;-79
2023/11/24 04:02:58;;;;;;;14.93;2.70;;;6.00;99.90;;;;;;2082243;28;20036;-81
2023/11/24 04:04:00;;;;;;;13.38;2.63;;;6.00;99.90;;;;;;2087873;28;20068;-80
2023/11/24 04:05:02;;;;;;;18.15;2.95;;;6.00;99.90;;;;;;2078722;28;20453;-78
2023/11/24 04:06:02;;;;;;;13.57;2.45;;;6.00;99.90;;;;;;2078834;28;20483;-80
2023/11/24 04:07:03;;;;;;;12.60;2.60;;;6.00;99.90;;;;;;2091913;28;20028;-81
2023/11/24 04:08:04;;;;;;;12.73;2.33;;;6.00;99.90;;;;;;2091869;28;20024;-81
2023/11/24 04:09:04;;;;;;;14.05;3.17;;;6.00;99.90;;;;;;2072145;28;20435;-80
2023/11/24 04:10:07;;;;;;;15.90;2.95;;;6.00;99.90;;;;;;2071308;28;20036;-80
2023/11/24 04:11:07;;;;;;;17.00;2.67;;;6.00;99.90;;;;;;2081330;28;20124;-80
2023/11/24 04:12:08;;;;;;;16.80;3.00;;;6.00;99.90;;;;;;2074092;28;20029;-79
2023/11/24 04:13:08;;;;;;;11.98;2.70;;;5.90;99.90;;;;;;2088368;28;20021;-79
2023/11/24 04:14:09;;;;;;;15.40;2.85;;;5.90;99.90;;;;;;2082780;28;20067;-80
2023/11/24 04:15:10;;;;;;;13.68;3.05;;;5.90;99.90;;;;;;2098273;28;20033;-80
2023/11/24 04:16:11;;;;;;;19.48;3.10;;;5.90;99.90;;;;;;2098337;28;20103;-80
2023/11/24 04:17:13;;;;;;;18.48;2.90;;;5.90;99.90;;;;;;2095999;28;20016;-79
2023/11/24 04:18:14;;;;;;;13.95;2.92;;;6.00;99.90;;;;;;2096515;28;20055;-78
2023/11/24 04:19:14;;;;;;;13.45;3.00;;;5.90;99.90;;;;;;2092557;28;20493;-79
2023/11/24 04:20:15;;;;;;;13.93;2.95;;;5.90;99.90;;;;;;2096656;28;20094;-80
2023/11/24 04:21:16;;;;;;;18.67;2.95;;;5.90;99.90;;;;;;2085195;28;20123;-80
2023/11/24 04:22:17;;;;;;;20.75;3.03;;;5.90;99.90;;;;;;2084492;28;20036;-77
2023/11/24 04:23:19;;;;;;;16.35;3.00;;;5.90;99.90;;;;;;2092715;28;20455;-80
2023/11/24 04:24:19;;;;;;;13.55;2.80;;;5.90;99.90;;;;;;2089441;28;20028;-78
2023/11/24 04:25:20;;;;;;;17.15;2.85;;;5.90;99.90;;;;;;2092969;28;20112;-78
2023/11/24 04:26:21;;;;;;;19.15;3.65;;;5.90;99.90;;;;;;2096327;28;20390;-80
2023/11/24 04:27:22;;;;;;;15.27;2.90;;;5.90;99.90;;;;;;2088909;28;20269;-80
2023/11/24 04:28:22;;;;;;;15.50;3.15;;;5.80;99.90;;;;;;2099613;28;20132;-81
2023/11/24 04:29:24;;;;;;;17.42;3.20;;;5.80;99.90;;;;;;2091764;28;20028;-82
2023/11/24 04:30:24;;;;;;;18.17;3.17;;;5.80;99.90;;;;;;2084729;28;20029;-79
2023/11/24 04:31:25;;;;;;;17.17;3.20;;;5.80;99.90;;;;;;2082476;28;20056;-80
2023/11/24 04:32:25;;;;;;;13.00;2.80;;;5.80;99.90;;;;;;2095715;28;20031;-81
2023/11/24 04:33:26;;;;;;;16.80;2.92;;;5.80;99.90;;;;;;2085448;28;20048;-80
2023/11/24 04:34:28;;;;;;;20.63;3.20;;;5.80;99.90;;;;;;2093056;28;20436;-80
2023/11/24 04:35:29;;;;;;;18.00;3.42;;;5.80;99.90;;;;;;2097548;28;20276;-80
2023/11/24 04:36:29;;;;;;;15.48;3.25;;;5.80;99.90;;;;;;2095695;28;20028;-79
2023/11/24 04:37:30;;;;;;;16.38;3.58;;;5.80;99.90;;;;;;2097234;28;20065;-80
2023/11/24 04:38:32;;;;;;;18.08;2.90;;;5.80;99.90;;;;;;2096775;28;20055;-79
2023/11/24 04:39:33;;;;;;;14.07;2.90;;;5.80;99.90;;;;;;2085515;28;20062;-80
2023/11/24 04:40:33;;;;;;;17.42;3.17;;;5.80;99.90;;;;;;2088430;28;20506;-80
2023/11/24 04:41:34;;;;;;;18.75;3.42;;;5.80;99.90;;;;;;2096884;28;20402;-80
2023/11/24 04:42:34;;;;;;;17.05;2.63;;;5.80;99.90;;;;;;2092543;28;20039;-80
2023/11/24 04:43:35;;;;;;;16.20;3.30;;;5.80;99.90;;;;;;2087857;28;20018;-80
2023/11/24 04:44:36;;;;;;;16.92;2.95;;;5.80;99.90;;;;;;2095723;28;20025;-81
2023/11/24 04:45:39;;;;;;;15.85;3.10;;;5.80;99.90;;;;;;2099225;28;20317;-80
2023/11/24 04:46:39;;;;;;;13.77;2.63;;;5.80;99.90;;;;;;2100678;28;20035;-80
2023/11/24 04:47:40;;;;;;;13.88;3.13;;;5.80;99.90;;;;;;2094628;28;20039;-80
2023/11/24 04:48:41;;;;;;;17.48;2.97;;;5.80;99.90;;;;;;2085489;28;20017;-80
2023/11/24 04:49:43;;;;;;;13.90;2.90;;;5.90;99.90;;;;;;2089875;28;20052;-81
2023/11/24 04:50:43;;;;;;;19.58;2.92;;;5.90;99.90;;;;;;2097291;28;20032;-80
2023/11/24 04:51:45;;;;;;;14.05;3.17;;;5.90;99.90;;;;;;2094471;28;20116;-79
2023/11/24 04:52:46;;;;;;;17.35;2.92;;;5.90;99.90;;;;;;2098621;28;20398;-79
2023/11/24 04:53:46;;;;;;;13.63;2.50;;;5.90;99.90;;;;;;2093911;28;20076;-79
2023/11/24 04:54:47;;;;;;;12.88;2.85;;;5.90;99.90;;;;;;2094324;28;20494;-80
2023/11/24 04:55:47;;;;;;;15.27;2.75;;;5.90;99.90;;;;;;2097870;28;20433;-79
2023/11/24 04:56:48;;;;;;;17.02;3.40;;;5.90;99.90;;;;;;2092931;28;20029;-80
2023/11/24 04:57:50;;;;;;;15.75;2.55;;;6.00;99.90;;;;;;2091353;28;20021;-76
2023/11/24 04:58:53;;;;;;;15.40;2.78;;;6.00;99.90;;;;;;2086390;28;20033;-78
2023/11/24 04:59:54;;;;;;;17.27;2.85;;;6.00;99.90;;;;;;2086946;28;20031;-81
2023/11/24 05:00:54;;;;;;;18.95;3.03;;;6.00;99.90;;;;;;2086400;28;20052;-79
2023/11/24 05:01:55;;;;;;;15.52;2.72;;;6.00;99.90;;;;;;2082192;28;20056;-79
2023/11/24 05:02:55;;;;;;;15.50;3.05;;;6.10;99.90;;;;;;2086991;28;20033;-79
2023/11/24 05:03:59;;;;;;;14.93;2.90;;;6.10;99.90;;;;;;2076231;28;20033;-79
2023/11/24 05:04:59;;;;;;;17.88;3.20;;;6.10;99.90;;;;;;2079225;28;20039;-79
2023/11/24 05:06:01;;;;;;;15.25;2.92;;;6.10;99.90;;;;;;2086272;28;20024;-78
2023/11/24 05:07:02;;;;;;;14.63;3.15;;;6.10;99.90;;;;;;2094952;28;20024;-79
2023/11/24 05:08:02;;;;;;;22.00;3.03;;;6.10;99.90;;;;;;2090865;28;20085;-80
2023/11/24 05:09:03;;;;;;;14.25;2.97;;;6.10;99.90;;;;;;2098923;28;20020;-80
2023/11/24 05:10:05;;;;;;;17.95;3.05;;;6.10;99.90;;;;;;2094788;28;20024;-79
2023/11/24 05:11:07;;;;;;;12.15;2.90;;;6.10;99.90;;;;;;2085797;28;20577;-80
2023/11/24 05:12:08;;;;;;;11.63;2.88;;;6.10;99.90;;;;;;2082815;28;20108;-79
2023/11/24 05:13:08;;;;;;;15.75;3.15;;;6.10;99.90;;;;;;2072669;28;20041;-80
2023/11/24 05:14:09;;;;;;;13.00;2.83;;;6.10;99.90;;;;;;2072477;28;20030;-79
2023/11/24 05:15:10;;;;;;;15.85;2.97;;;6.10;99.90;;;;;;2082503;28;20037;-79
2023/11/24 05:16:11;;;;;;;17.63;3.08;;;6.10;99.90;;;;;;2080934;28;20022;-79
2023/11/24 05:17:12;;;;;;;16.73;2.97;;;6.10;99.90;;;;;;2094776;28;20973;-79
2023/11/24 05:18:13;;;;;;;15.60;3.00;;;6.10;99.90;;;;;;2098603;28;20064;-79
2023/11/24 05:19:14;;;;;;;18.77;3.55;;;6.10;99.90;;;;;;2093783;28;20024;-80
2023/11/24 05:20:17;;;;;;;19.85;3.08;;;6.10;99.90;;;;;;2093519;28;20052;-80